sensor_id;sensor_type;location;lat;lon;timestamp;temperature;humidity
6664;DHT22;58749;48.022;10.922;2023-02-28T00:01:25;-1.40;99.90
6664;DHT22;58749;48.022;10.922;2023-02-28T00:03:54;-1.30;99.90
6664;DHT22;58749;48.022;10.922;2023-02-28T00:06:22;-1.30;99.90
6664;DHT22;58749;48.022;10.922;2023-02-28T00:08:51;-1.40;99.90
6664;DHT22;58749;48.022;10.922;2023-02-28T00:11:20;-1.50;99.90
6664;DHT22;58749;48.022;10.922;2023-02-28T00:13:48;-1.50;99.90
6664;DHT22;58749;48.022;10.922;2023-02-28T00:16:18;-1.50;99.90
6664;DHT22;58749;48.022;10.922;2023-02-28T00:18:46;-1.50;99.90
6664;DHT22;58749;48.022;10.922;2023-02-28T00:21:15;-1.40;99.90
6664;DHT22;58749;48.022;10.922;2023-02-28T00:23:44;-1.50;99.90
6664;DHT22;58749;48.022;10.922;2023-02-28T00:26:12;-1.50;99.90
6664;DHT22;58749;48.022;10.922;2023-02-28T00:28:41;-1.40;99.90
6664;DHT22;58749;48.022;10.922;2023-02-28T00:31:09;-1.30;99.90
6664;DHT22;58749;48.022;10.922;2023-02-28T00:33:37;-1.20;99.90
6664;DHT22;58749;48.022;10.922;2023-02-28T00:36:07;-1.20;99.90
6664;DHT22;58749;48.022;10.922;2023-02-28T00:38:36;-1.20;99.90
6664;DHT22;58749;48.022;10.922;2023-02-28T00:41:05;-1.10;99.90
6664;DHT22;58749;48.022;10.922;2023-02-28T00:43:34;-1.10;99.90
6664;DHT22;58749;48.022;10.922;2023-02-28T00:46:05;-1.10;99.90
6664;DHT22;58749;48.022;10.922;2023-02-28T00:48:34;-1.10;99.90
6664;DHT22;58749;48.022;10.922;2023-02-28T00:51:02;-1.20;99.90
6664;DHT22;58749;48.022;10.922;2023-02-28T00:53:30;-1.10;99.90
6664;DHT22;58749;48.022;10.922;2023-02-28T00:55:59;-1.20;99.90
6664;DHT22;58749;48.022;10.922;2023-02-28T00:58:27;-1.20;99.90
6664;DHT22;58749;48.022;10.922;2023-02-28T01:00:55;-1.20;99.90
6664;DHT22;58749;48.022;10.922;2023-02-28T01:03:24;-1.30;99.90
6664;DHT22;58749;48.022;10.922;2023-02-28T01:05:52;-1.40;99.90
6664;DHT22;58749;48.022;10.922;2023-02-28T01:08:20;-1.30;99.90
6664;DHT22;58749;48.022;10.922;2023-02-28T01:10:49;-1.30;99.90
6664;DHT22;58749;48.022;10.922;2023-02-28T01:13:17;-1.30;99.90
6664;DHT22;58749;48.022;10.922;2023-02-28T01:15:49;-1.40;99.90
6664;DHT22;58749;48.022;10.922;2023-02-28T01:18:17;-1.50;99.90
6664;DHT22;58749;48.022;10.922;2023-02-28T01:20:47;-1.60;99.90
6664;DHT22;58749;48.022;10.922;2023-02-28T01:23:15;-1.60;99.90
6664;DHT22;58749;48.022;10.922;2023-02-28T01:25:43;-1.60;99.90
6664;DHT22;58749;48.022;10.922;2023-02-28T01:28:37;-1.60;99.90
6664;DHT22;58749;48.022;10.922;2023-02-28T01:31:11;-1.60;99.90
6664;DHT22;58749;48.022;10.922;2023-02-28T01:33:39;-1.60;99.90
6664;DHT22;58749;48.022;10.922;2023-02-28T01:36:10;-1.60;99.90
6664;DHT22;58749;48.022;10.922;2023-02-28T01:38:39;-1.70;99.90
6664;DHT22;58749;48.022;10.922;2023-02-28T01:41:08;-1.70;99.90
6664;DHT22;58749;48.022;10.922;2023-02-28T01:43:55;-1.80;99.90
6664;DHT22;58749;48.022;10.922;2023-02-28T01:46:23;-1.70;99.90
6664;DHT22;58749;48.022;10.922;2023-02-28T01:48:54;-1.70;99.90
6664;DHT22;58749;48.022;10.922;2023-02-28T01:51:29;-1.70;99.90
6664;DHT22;58749;48.022;10.922;2023-02-28T01:54:00;-1.70;99.90
6664;DHT22;58749;48.022;10.922;2023-02-28T01:56:33;-1.70;99.90
6664;DHT22;58749;48.022;10.922;2023-02-28T01:59:02;-1.70;99.90
6664;DHT22;58749;48.022;10.922;2023-02-28T02:01:31;-1.90;99.90
6664;DHT22;58749;48.022;10.922;2023-02-28T02:04:01;-2.00;99.90
6664;DHT22;58749;48.022;10.922;2023-02-28T02:06:35;-1.90;99.90
6664;DHT22;58749;48.022;10.922;2023-02-28T02:09:04;-1.90;99.90
6664;DHT22;58749;48.022;10.922;2023-02-28T02:11:34;-1.80;99.90
6664;DHT22;58749;48.022;10.922;2023-02-28T02:14:17;-1.70;99.90
6664;DHT22;58749;48.022;10.922;2023-02-28T02:16:55;-1.70;99.90
6664;DHT22;58749;48.022;10.922;2023-02-28T02:23:14;-1.50;99.90
6664;DHT22;58749;48.022;10.922;2023-02-28T02:25:53;-1.70;99.90
6664;DHT22;58749;48.022;10.922;2023-02-28T02:28:49;-1.60;99.90
6664;DHT22;58749;48.022;10.922;2023-02-28T02:31:56;-1.60;99.90
6664;DHT22;58749;48.022;10.922;2023-02-28T02:35:01;-1.70;99.90
6664;DHT22;58749;48.022;10.922;2023-02-28T02:37:55;-1.70;99.90
6664;DHT22;58749;48.022;10.922;2023-02-28T02:40:29;-1.80;99.90
6664;DHT22;58749;48.022;10.922;2023-02-28T02:43:01;-1.70;99.90
6664;DHT22;58749;48.022;10.922;2023-02-28T02:45:34;-1.80;99.90
6664;DHT22;58749;48.022;10.922;2023-02-28T02:48:06;-1.80;99.90
6664;DHT22;58749;48.022;10.922;2023-02-28T02:50:41;-1.80;99.90
6664;DHT22;58749;48.022;10.922;2023-02-28T02:53:12;-1.80;99.90
6664;DHT22;58749;48.022;10.922;2023-02-28T02:55:44;-1.80;99.90
6664;DHT22;58749;48.022;10.922;2023-02-28T02:58:22;-1.80;99.90
6664;DHT22;58749;48.022;10.922;2023-02-28T03:00:53;-1.80;99.90
6664;DHT22;58749;48.022;10.922;2023-02-28T03:03:23;-1.80;99.90
6664;DHT22;58749;48.022;10.922;2023-02-28T03:05:59;-1.90;99.90
6664;DHT22;58749;48.022;10.922;2023-02-28T03:08:29;-1.90;99.90
6664;DHT22;58749;48.022;10.922;2023-02-28T03:11:01;-2.00;99.90
6664;DHT22;58749;48.022;10.922;2023-02-28T03:14:05;-2.00;99.90
6664;DHT22;58749;48.022;10.922;2023-02-28T03:16:49;-2.20;99.90
6664;DHT22;58749;48.022;10.922;2023-02-28T03:19:33;-2.10;99.90
6664;DHT22;58749;48.022;10.922;2023-02-28T03:22:17;-2.10;99.90
6664;DHT22;58749;48.022;10.922;2023-02-28T03:24:52;-2.20;99.90
6664;DHT22;58749;48.022;10.922;2023-02-28T03:27:27;-2.20;99.90
6664;DHT22;58749;48.022;10.922;2023-02-28T03:30:00;-2.10;99.90
6664;DHT22;58749;48.022;10.922;2023-02-28T03:32:53;-2.00;99.90
6664;DHT22;58749;48.022;10.922;2023-02-28T03:35:45;-2.10;99.90
6664;DHT22;58749;48.022;10.922;2023-02-28T03:38:40;-2.10;99.90
6664;DHT22;58749;48.022;10.922;2023-02-28T03:41:14;-2.20;99.90
6664;DHT22;58749;48.022;10.922;2023-02-28T03:43:46;-2.30;99.90
6664;DHT22;58749;48.022;10.922;2023-02-28T03:46:18;-2.30;99.90
6664;DHT22;58749;48.022;10.922;2023-02-28T03:48:53;-2.40;99.90
6664;DHT22;58749;48.022;10.922;2023-02-28T03:51:24;-2.40;99.90
6664;DHT22;58749;48.022;10.922;2023-02-28T03:53:59;-2.50;99.90
6664;DHT22;58749;48.022;10.922;2023-02-28T03:56:34;-2.60;99.90
6664;DHT22;58749;48.022;10.922;2023-02-28T03:59:10;-2.60;99.90
6664;DHT22;58749;48.022;10.922;2023-02-28T04:01:43;-2.60;99.90
6664;DHT22;58749;48.022;10.922;2023-02-28T04:04:12;-2.60;99.90
6664;DHT22;58749;48.022;10.922;2023-02-28T04:06:41;-2.70;99.90
6664;DHT22;58749;48.022;10.922;2023-02-28T04:09:13;-2.70;99.90
6664;DHT22;58749;48.022;10.922;2023-02-28T04:11:43;-2.70;99.90
6664;DHT22;58749;48.022;10.922;2023-02-28T04:14:12;-2.60;99.90
6664;DHT22;58749;48.022;10.922;2023-02-28T04:16:41;-2.60;99.90
6664;DHT22;58749;48.022;10.922;2023-02-28T04:19:11;-2.50;99.90
6664;DHT22;58749;48.022;10.922;2023-02-28T04:21:42;-2.50;99.90
6664;DHT22;58749;48.022;10.922;2023-02-28T04:24:13;-2.60;99.90
6664;DHT22;58749;48.022;10.922;2023-02-28T04:26:42;-2.60;99.90
6664;DHT22;58749;48.022;10.922;2023-02-28T04:29:12;-2.60;99.90
6664;DHT22;58749;48.022;10.922;2023-02-28T04:31:40;-2.50;99.90
6664;DHT22;58749;48.022;10.922;2023-02-28T04:34:08;-2.30;99.90
6664;DHT22;58749;48.022;10.922;2023-02-28T04:36:37;-2.30;99.90
6664;DHT22;58749;48.022;10.922;2023-02-28T04:39:05;-2.30;99.90
6664;DHT22;58749;48.022;10.922;2023-02-28T04:41:34;-2.30;99.90
6664;DHT22;58749;48.022;10.922;2023-02-28T04:44:02;-2.20;99.90
6664;DHT22;58749;48.022;10.922;2023-02-28T04:46:34;-2.20;99.90
6664;DHT22;58749;48.022;10.922;2023-02-28T04:49:02;-2.20;99.90
6664;DHT22;58749;48.022;10.922;2023-02-28T04:51:30;-2.10;99.90
6664;DHT22;58749;48.022;10.922;2023-02-28T04:53:58;-2.00;99.90
6664;DHT22;58749;48.022;10.922;2023-02-28T04:56:26;-2.00;99.90
6664;DHT22;58749;48.022;10.922;2023-02-28T04:58:56;-2.10;99.90
6664;DHT22;58749;48.022;10.922;2023-02-28T05:01:26;-2.20;99.90
6664;DHT22;58749;48.022;10.922;2023-02-28T05:03:56;-2.20;99.90
6664;DHT22;58749;48.022;10.922;2023-02-28T05:06:25;-2.10;99.90
6664;DHT22;58749;48.022;10.922;2023-02-28T05:08:54;-2.10;99.90
6664;DHT22;58749;48.022;10.922;2023-02-28T05:11:25;-2.10;99.90
6664;DHT22;58749;48.022;10.922;2023-02-28T05:13:56;-2.20;99.90
6664;DHT22;58749;48.022;10.922;2023-02-28T05:16:24;-2.10;99.90
6664;DHT22;58749;48.022;10.922;2023-02-28T05:18:52;-2.10;99.90
6664;DHT22;58749;48.022;10.922;2023-02-28T05:21:25;-2.10;99.90
6664;DHT22;58749;48.022;10.922;2023-02-28T05:23:55;-2.10;99.90
6664;DHT22;58749;48.022;10.922;2023-02-28T05:26:24;-2.00;99.90
6664;DHT22;58749;48.022;10.922;2023-02-28T05:28:53;-2.10;99.90
6664;DHT22;58749;48.022;10.922;2023-02-28T05:31:23;-2.10;99.90
6664;DHT22;58749;48.022;10.922;2023-02-28T05:33:51;-2.00;99.90
6664;DHT22;58749;48.022;10.922;2023-02-28T05:36:20;-2.00;99.90
6664;DHT22;58749;48.022;10.922;2023-02-28T05:38:48;-2.00;99.90
6664;DHT22;58749;48.022;10.922;2023-02-28T05:41:18;-2.10;99.90
6664;DHT22;58749;48.022;10.922;2023-02-28T05:43:47;-2.30;99.90
6664;DHT22;58749;48.022;10.922;2023-02-28T05:46:15;-2.30;99.90
6664;DHT22;58749;48.022;10.922;2023-02-28T05:48:46;-2.20;99.90
6664;DHT22;58749;48.022;10.922;2023-02-28T05:51:15;-2.10;99.90
6664;DHT22;58749;48.022;10.922;2023-02-28T05:53:43;-2.20;99.90
6664;DHT22;58749;48.022;10.922;2023-02-28T05:56:11;-2.00;99.90
6664;DHT22;58749;48.022;10.922;2023-02-28T05:58:39;-1.80;99.90
6664;DHT22;58749;48.022;10.922;2023-02-28T06:01:26;-1.80;99.90
6664;DHT22;58749;48.022;10.922;2023-02-28T06:04:00;-1.60;99.90
6664;DHT22;58749;48.022;10.922;2023-02-28T06:06:28;-1.50;99.90
6664;DHT22;58749;48.022;10.922;2023-02-28T06:08:57;-1.40;99.90
6664;DHT22;58749;48.022;10.922;2023-02-28T06:11:25;-1.50;99.90
6664;DHT22;58749;48.022;10.922;2023-02-28T06:13:55;-1.50;99.90
6664;DHT22;58749;48.022;10.922;2023-02-28T06:16:23;-1.50;99.90
6664;DHT22;58749;48.022;10.922;2023-02-28T06:18:52;-1.50;99.90
6664;DHT22;58749;48.022;10.922;2023-02-28T06:21:24;-1.50;99.90
6664;DHT22;58749;48.022;10.922;2023-02-28T06:23:55;-1.40;99.90
6664;DHT22;58749;48.022;10.922;2023-02-28T06:26:23;-1.40;99.90
6664;DHT22;58749;48.022;10.922;2023-02-28T06:28:52;-1.40;99.90
6664;DHT22;58749;48.022;10.922;2023-02-28T06:31:21;-1.40;99.90
6664;DHT22;58749;48.022;10.922;2023-02-28T06:33:49;-1.30;99.90
6664;DHT22;58749;48.022;10.922;2023-02-28T06:36:18;-1.30;99.90
6664;DHT22;58749;48.022;10.922;2023-02-28T06:38:47;-1.20;99.90
6664;DHT22;58749;48.022;10.922;2023-02-28T06:41:22;-1.10;99.90
6664;DHT22;58749;48.022;10.922;2023-02-28T06:43:51;-1.00;99.90
6664;DHT22;58749;48.022;10.922;2023-02-28T06:46:20;-0.90;99.90
6664;DHT22;58749;48.022;10.922;2023-02-28T06:48:48;-0.90;99.90
6664;DHT22;58749;48.022;10.922;2023-02-28T06:51:18;-1.00;99.90
6664;DHT22;58749;48.022;10.922;2023-02-28T06:53:48;-1.00;99.90
6664;DHT22;58749;48.022;10.922;2023-02-28T06:56:35;-0.90;99.90
6664;DHT22;58749;48.022;10.922;2023-02-28T06:59:04;-0.90;99.90
6664;DHT22;58749;48.022;10.922;2023-02-28T07:01:32;-0.80;99.90
6664;DHT22;58749;48.022;10.922;2023-02-28T07:04:00;-0.80;99.90
6664;DHT22;58749;48.022;10.922;2023-02-28T07:06:28;-0.60;99.90
6664;DHT22;58749;48.022;10.922;2023-02-28T07:08:58;-0.60;99.90
6664;DHT22;58749;48.022;10.922;2023-02-28T07:11:27;-0.60;99.90
6664;DHT22;58749;48.022;10.922;2023-02-28T07:13:57;-0.60;99.90
6664;DHT22;58749;48.022;10.922;2023-02-28T07:16:25;-0.60;99.90
6664;DHT22;58749;48.022;10.922;2023-02-28T07:18:54;-0.60;99.90
6664;DHT22;58749;48.022;10.922;2023-02-28T07:21:22;-0.60;99.90
6664;DHT22;58749;48.022;10.922;2023-02-28T07:23:51;-0.70;99.90
6664;DHT22;58749;48.022;10.922;2023-02-28T07:26:20;-0.70;99.90
6664;DHT22;58749;48.022;10.922;2023-02-28T07:28:49;-0.80;99.90
6664;DHT22;58749;48.022;10.922;2023-02-28T07:31:17;-0.70;99.90
6664;DHT22;58749;48.022;10.922;2023-02-28T07:33:46;-0.60;99.90
6664;DHT22;58749;48.022;10.922;2023-02-28T07:36:15;-0.60;99.90
6664;DHT22;58749;48.022;10.922;2023-02-28T07:38:46;-0.70;99.90
6664;DHT22;58749;48.022;10.922;2023-02-28T07:41:18;-0.60;99.90
6664;DHT22;58749;48.022;10.922;2023-02-28T07:43:48;-0.50;99.90
6664;DHT22;58749;48.022;10.922;2023-02-28T07:46:16;-0.50;99.90
6664;DHT22;58749;48.022;10.922;2023-02-28T07:48:47;-0.40;99.90
6664;DHT22;58749;48.022;10.922;2023-02-28T07:51:15;-0.30;99.90
6664;DHT22;58749;48.022;10.922;2023-02-28T07:53:43;-0.40;99.90
6664;DHT22;58749;48.022;10.922;2023-02-28T07:56:11;-0.30;99.90
6664;DHT22;58749;48.022;10.922;2023-02-28T07:58:39;-0.20;99.90
6664;DHT22;58749;48.022;10.922;2023-02-28T08:01:11;-0.20;99.90
6664;DHT22;58749;48.022;10.922;2023-02-28T08:03:40;-0.10;99.90
6664;DHT22;58749;48.022;10.922;2023-02-28T08:06:16;-0.10;99.90
6664;DHT22;58749;48.022;10.922;2023-02-28T08:08:45;-0.20;99.90
6664;DHT22;58749;48.022;10.922;2023-02-28T08:11:13;-0.10;99.90
6664;DHT22;58749;48.022;10.922;2023-02-28T08:13:43;0.00;99.90
6664;DHT22;58749;48.022;10.922;2023-02-28T08:16:14;0.00;99.90
6664;DHT22;58749;48.022;10.922;2023-02-28T08:18:49;0.10;99.90
6664;DHT22;58749;48.022;10.922;2023-02-28T08:21:18;0.10;99.90
6664;DHT22;58749;48.022;10.922;2023-02-28T08:23:46;0.10;99.90
6664;DHT22;58749;48.022;10.922;2023-02-28T08:26:15;0.30;99.90
6664;DHT22;58749;48.022;10.922;2023-02-28T08:28:43;0.20;99.90
6664;DHT22;58749;48.022;10.922;2023-02-28T08:31:14;0.30;99.90
6664;DHT22;58749;48.022;10.922;2023-02-28T08:33:43;0.40;99.90
6664;DHT22;58749;48.022;10.922;2023-02-28T08:36:12;0.50;99.90
6664;DHT22;58749;48.022;10.922;2023-02-28T08:38:41;0.40;99.90
6664;DHT22;58749;48.022;10.922;2023-02-28T08:41:11;0.30;99.90
6664;DHT22;58749;48.022;10.922;2023-02-28T08:43:40;0.30;99.90
6664;DHT22;58749;48.022;10.922;2023-02-28T08:46:11;0.30;99.90
6664;DHT22;58749;48.022;10.922;2023-02-28T08:48:41;0.40;99.90
6664;DHT22;58749;48.022;10.922;2023-02-28T08:51:10;0.30;99.90
6664;DHT22;58749;48.022;10.922;2023-02-28T08:53:40;0.30;99.90
6664;DHT22;58749;48.022;10.922;2023-02-28T08:56:09;0.30;99.90
6664;DHT22;58749;48.022;10.922;2023-02-28T08:58:38;0.40;99.90
6664;DHT22;58749;48.022;10.922;2023-02-28T09:01:11;0.40;99.90
6664;DHT22;58749;48.022;10.922;2023-02-28T09:03:42;0.30;99.90
6664;DHT22;58749;48.022;10.922;2023-02-28T09:06:11;0.30;99.90
6664;DHT22;58749;48.022;10.922;2023-02-28T09:08:39;0.40;99.90
6664;DHT22;58749;48.022;10.922;2023-02-28T09:11:08;0.50;99.90
6664;DHT22;58749;48.022;10.922;2023-02-28T09:13:37;0.60;99.90
6664;DHT22;58749;48.022;10.922;2023-02-28T09:16:08;0.70;99.90
6664;DHT22;58749;48.022;10.922;2023-02-28T09:18:37;0.70;99.90
6664;DHT22;58749;48.022;10.922;2023-02-28T09:21:09;0.80;99.90
6664;DHT22;58749;48.022;10.922;2023-02-28T09:23:38;0.90;99.90
6664;DHT22;58749;48.022;10.922;2023-02-28T09:26:14;1.00;99.90
6664;DHT22;58749;48.022;10.922;2023-02-28T09:28:43;1.10;99.90
6664;DHT22;58749;48.022;10.922;2023-02-28T09:31:13;1.00;99.90
6664;DHT22;58749;48.022;10.922;2023-02-28T09:33:42;1.00;99.90
6664;DHT22;58749;48.022;10.922;2023-02-28T09:36:12;1.00;99.90
6664;DHT22;58749;48.022;10.922;2023-02-28T09:38:40;1.00;99.90
6664;DHT22;58749;48.022;10.922;2023-02-28T09:41:14;1.20;99.90
6664;DHT22;58749;48.022;10.922;2023-02-28T09:43:45;1.20;99.90
6664;DHT22;58749;48.022;10.922;2023-02-28T09:46:25;1.20;99.90
6664;DHT22;58749;48.022;10.922;2023-02-28T09:48:55;1.20;99.90
6664;DHT22;58749;48.022;10.922;2023-02-28T09:51:35;1.10;99.90
6664;DHT22;58749;48.022;10.922;2023-02-28T09:54:05;1.20;99.90
6664;DHT22;58749;48.022;10.922;2023-02-28T09:56:37;1.10;99.90
6664;DHT22;58749;48.022;10.922;2023-02-28T09:59:15;1.10;99.90
6664;DHT22;58749;48.022;10.922;2023-02-28T10:01:52;1.00;99.90
6664;DHT22;58749;48.022;10.922;2023-02-28T10:04:37;1.00;99.90
6664;DHT22;58749;48.022;10.922;2023-02-28T10:07:16;1.10;99.90
6664;DHT22;58749;48.022;10.922;2023-02-28T10:09:47;1.10;99.90
6664;DHT22;58749;48.022;10.922;2023-02-28T10:12:20;1.20;99.90
6664;DHT22;58749;48.022;10.922;2023-02-28T10:14:51;1.40;99.90
6664;DHT22;58749;48.022;10.922;2023-02-28T10:17:23;1.30;99.90
6664;DHT22;58749;48.022;10.922;2023-02-28T10:19:56;1.40;99.90
6664;DHT22;58749;48.022;10.922;2023-02-28T10:22:27;1.40;99.90
6664;DHT22;58749;48.022;10.922;2023-02-28T10:24:58;1.30;99.90
6664;DHT22;58749;48.022;10.922;2023-02-28T10:27:33;1.40;99.90
6664;DHT22;58749;48.022;10.922;2023-02-28T10:30:02;1.40;99.90
6664;DHT22;58749;48.022;10.922;2023-02-28T10:32:33;1.40;99.90
6664;DHT22;58749;48.022;10.922;2023-02-28T10:35:14;1.40;99.90
6664;DHT22;58749;48.022;10.922;2023-02-28T10:37:46;1.50;99.90
6664;DHT22;58749;48.022;10.922;2023-02-28T10:40:28;1.50;99.90
6664;DHT22;58749;48.022;10.922;2023-02-28T10:42:58;1.40;99.90
6664;DHT22;58749;48.022;10.922;2023-02-28T10:45:28;1.50;99.90
6664;DHT22;58749;48.022;10.922;2023-02-28T10:47:58;1.40;99.90
6664;DHT22;58749;48.022;10.922;2023-02-28T10:50:41;1.50;99.90
6664;DHT22;58749;48.022;10.922;2023-02-28T10:53:30;1.50;99.90
6664;DHT22;58749;48.022;10.922;2023-02-28T10:56:18;1.60;99.90
6664;DHT22;58749;48.022;10.922;2023-02-28T10:58:54;1.70;99.90
6664;DHT22;58749;48.022;10.922;2023-02-28T11:01:27;1.80;99.90
6664;DHT22;58749;48.022;10.922;2023-02-28T11:04:02;1.90;99.90
6664;DHT22;58749;48.022;10.922;2023-02-28T11:06:33;1.90;99.90
6664;DHT22;58749;48.022;10.922;2023-02-28T11:09:13;2.10;99.90
6664;DHT22;58749;48.022;10.922;2023-02-28T11:11:45;2.10;99.90
6664;DHT22;58749;48.022;10.922;2023-02-28T11:14:19;2.10;99.90
6664;DHT22;58749;48.022;10.922;2023-02-28T11:16:48;2.20;99.90
6664;DHT22;58749;48.022;10.922;2023-02-28T11:19:22;2.30;99.90
6664;DHT22;58749;48.022;10.922;2023-02-28T11:21:55;2.20;99.90
6664;DHT22;58749;48.022;10.922;2023-02-28T11:24:29;2.10;99.90
6664;DHT22;58749;48.022;10.922;2023-02-28T11:27:00;2.10;99.90
6664;DHT22;58749;48.022;10.922;2023-02-28T11:29:32;1.90;99.90
6664;DHT22;58749;48.022;10.922;2023-02-28T11:32:07;1.90;99.90
6664;DHT22;58749;48.022;10.922;2023-02-28T11:34:41;1.90;99.90
6664;DHT22;58749;48.022;10.922;2023-02-28T11:37:14;1.80;99.90
6664;DHT22;58749;48.022;10.922;2023-02-28T11:39:54;1.90;99.90
6664;DHT22;58749;48.022;10.922;2023-02-28T11:42:46;1.90;99.90
6664;DHT22;58749;48.022;10.922;2023-02-28T11:45:26;1.80;99.90
6664;DHT22;58749;48.022;10.922;2023-02-28T11:48:09;1.90;99.90
6664;DHT22;58749;48.022;10.922;2023-02-28T11:50:58;2.00;99.90
6664;DHT22;58749;48.022;10.922;2023-02-28T11:53:52;2.20;99.90
6664;DHT22;58749;48.022;10.922;2023-02-28T11:56:38;2.30;99.90
6664;DHT22;58749;48.022;10.922;2023-02-28T11:59:29;2.40;99.90
6664;DHT22;58749;48.022;10.922;2023-02-28T12:02:28;2.30;99.90
6664;DHT22;58749;48.022;10.922;2023-02-28T12:05:24;2.50;99.90
6664;DHT22;58749;48.022;10.922;2023-02-28T12:08:11;2.70;99.90
6664;DHT22;58749;48.022;10.922;2023-02-28T12:10:57;2.70;99.90
6664;DHT22;58749;48.022;10.922;2023-02-28T12:13:48;2.70;99.90
6664;DHT22;58749;48.022;10.922;2023-02-28T12:16:49;2.70;99.90
6664;DHT22;58749;48.022;10.922;2023-02-28T12:19:27;2.70;99.90
6664;DHT22;58749;48.022;10.922;2023-02-28T12:22:29;2.60;99.90
6664;DHT22;58749;48.022;10.922;2023-02-28T12:25:39;2.70;99.90
6664;DHT22;58749;48.022;10.922;2023-02-28T12:28:26;2.70;99.90
6664;DHT22;58749;48.022;10.922;2023-02-28T12:31:11;2.70;99.90
6664;DHT22;58749;48.022;10.922;2023-02-28T12:33:56;2.70;99.90
6664;DHT22;58749;48.022;10.922;2023-02-28T12:36:34;2.60;99.90
6664;DHT22;58749;48.022;10.922;2023-02-28T12:39:15;2.70;99.90
6664;DHT22;58749;48.022;10.922;2023-02-28T12:41:53;2.70;99.90
6664;DHT22;58749;48.022;10.922;2023-02-28T12:44:40;2.80;99.90
6664;DHT22;58749;48.022;10.922;2023-02-28T12:47:23;2.80;99.90
6664;DHT22;58749;48.022;10.922;2023-02-28T12:49:58;2.90;99.90
6664;DHT22;58749;48.022;10.922;2023-02-28T12:52:48;3.00;99.90
6664;DHT22;58749;48.022;10.922;2023-02-28T12:55:35;3.10;99.90
6664;DHT22;58749;48.022;10.922;2023-02-28T12:58:37;3.30;99.90
6664;DHT22;58749;48.022;10.922;2023-02-28T13:01:51;3.60;99.90
6664;DHT22;58749;48.022;10.922;2023-02-28T13:05:27;3.80;99.90
6664;DHT22;58749;48.022;10.922;2023-02-28T13:11:39;4.00;99.90
6664;DHT22;58749;48.022;10.922;2023-02-28T13:14:23;4.00;99.90
6664;DHT22;58749;48.022;10.922;2023-02-28T13:17:03;4.00;99.90
6664;DHT22;58749;48.022;10.922;2023-02-28T13:20:02;4.00;99.90
6664;DHT22;58749;48.022;10.922;2023-02-28T13:22:46;3.80;99.90
6664;DHT22;58749;48.022;10.922;2023-02-28T13:25:52;3.80;99.90
6664;DHT22;58749;48.022;10.922;2023-02-28T13:28:59;3.70;99.90
6664;DHT22;58749;48.022;10.922;2023-02-28T13:38:21;3.60;99.90
6664;DHT22;58749;48.022;10.922;2023-02-28T13:44:20;3.80;99.90
6664;DHT22;58749;48.022;10.922;2023-02-28T13:47:24;3.80;99.90
6664;DHT22;58749;48.022;10.922;2023-02-28T13:50:29;3.70;99.90
6664;DHT22;58749;48.022;10.922;2023-02-28T13:53:43;3.80;99.90
6664;DHT22;58749;48.022;10.922;2023-02-28T13:56:44;3.70;99.90
6664;DHT22;58749;48.022;10.922;2023-02-28T13:59:31;3.80;99.90
6664;DHT22;58749;48.022;10.922;2023-02-28T14:02:33;3.80;99.90
6664;DHT22;58749;48.022;10.922;2023-02-28T14:05:13;3.80;99.90
6664;DHT22;58749;48.022;10.922;2023-02-28T14:07:48;3.80;99.90
6664;DHT22;58749;48.022;10.922;2023-02-28T14:10:28;3.70;99.90
6664;DHT22;58749;48.022;10.922;2023-02-28T14:13:12;3.70;99.90
6664;DHT22;58749;48.022;10.922;2023-02-28T14:15:58;3.80;99.90
6664;DHT22;58749;48.022;10.922;2023-02-28T14:18:56;3.80;99.90
6664;DHT22;58749;48.022;10.922;2023-02-28T14:21:30;3.70;99.90
6664;DHT22;58749;48.022;10.922;2023-02-28T14:24:44;3.60;99.90
6664;DHT22;58749;48.022;10.922;2023-02-28T14:27:42;3.60;99.90
6664;DHT22;58749;48.022;10.922;2023-02-28T14:30:51;3.50;99.90
6664;DHT22;58749;48.022;10.922;2023-02-28T14:33:44;3.40;99.90
6664;DHT22;58749;48.022;10.922;2023-02-28T14:36:22;3.30;99.90
6664;DHT22;58749;48.022;10.922;2023-02-28T14:39:16;3.20;99.90
6664;DHT22;58749;48.022;10.922;2023-02-28T14:41:48;3.20;99.90
6664;DHT22;58749;48.022;10.922;2023-02-28T14:44:35;3.20;99.90
6664;DHT22;58749;48.022;10.922;2023-02-28T14:47:18;3.10;99.90
6664;DHT22;58749;48.022;10.922;2023-02-28T14:50:03;3.00;99.90
6664;DHT22;58749;48.022;10.922;2023-02-28T14:52:51;3.00;99.90
6664;DHT22;58749;48.022;10.922;2023-02-28T14:55:28;3.00;99.90
6664;DHT22;58749;48.022;10.922;2023-02-28T14:58:23;2.90;99.90
6664;DHT22;58749;48.022;10.922;2023-02-28T15:01:01;2.90;99.90
6664;DHT22;58749;48.022;10.922;2023-02-28T15:03:39;2.80;99.90
6664;DHT22;58749;48.022;10.922;2023-02-28T15:09:17;2.90;99.90
6664;DHT22;58749;48.022;10.922;2023-02-28T15:11:54;2.90;99.90
6664;DHT22;58749;48.022;10.922;2023-02-28T15:14:27;2.90;99.90
6664;DHT22;58749;48.022;10.922;2023-02-28T15:17:06;2.90;99.90
6664;DHT22;58749;48.022;10.922;2023-02-28T15:19:51;2.90;99.90
6664;DHT22;58749;48.022;10.922;2023-02-28T15:22:27;2.90;99.90
6664;DHT22;58749;48.022;10.922;2023-02-28T15:25:02;2.90;99.90
6664;DHT22;58749;48.022;10.922;2023-02-28T15:27:41;2.90;99.90
6664;DHT22;58749;48.022;10.922;2023-02-28T15:30:24;2.90;99.90
6664;DHT22;58749;48.022;10.922;2023-02-28T15:33:25;2.80;99.90
6664;DHT22;58749;48.022;10.922;2023-02-28T15:36:14;2.90;99.90
6664;DHT22;58749;48.022;10.922;2023-02-28T15:39:00;3.00;99.90
6664;DHT22;58749;48.022;10.922;2023-02-28T15:41:51;3.20;99.90
6664;DHT22;58749;48.022;10.922;2023-02-28T15:44:40;3.30;99.90
6664;DHT22;58749;48.022;10.922;2023-02-28T15:47:27;3.40;99.90
6664;DHT22;58749;48.022;10.922;2023-02-28T15:50:23;3.50;99.90
6664;DHT22;58749;48.022;10.922;2023-02-28T15:53:28;3.60;99.90
6664;DHT22;58749;48.022;10.922;2023-02-28T15:56:22;3.70;99.90
6664;DHT22;58749;48.022;10.922;2023-02-28T15:59:23;3.70;99.90
6664;DHT22;58749;48.022;10.922;2023-02-28T16:02:29;3.80;99.90
6664;DHT22;58749;48.022;10.922;2023-02-28T16:08:35;3.80;99.90
6664;DHT22;58749;48.022;10.922;2023-02-28T16:11:24;3.80;99.90
6664;DHT22;58749;48.022;10.922;2023-02-28T16:13:56;3.80;99.90
6664;DHT22;58749;48.022;10.922;2023-02-28T16:16:41;3.80;99.90
6664;DHT22;58749;48.022;10.922;2023-02-28T16:19:56;3.80;99.90
6664;DHT22;58749;48.022;10.922;2023-02-28T16:22:28;3.80;99.90
6664;DHT22;58749;48.022;10.922;2023-02-28T16:25:33;3.70;99.90
6664;DHT22;58749;48.022;10.922;2023-02-28T16:28:12;3.70;99.90
6664;DHT22;58749;48.022;10.922;2023-02-28T16:31:01;3.70;99.90
6664;DHT22;58749;48.022;10.922;2023-02-28T16:34:05;3.70;99.90
6664;DHT22;58749;48.022;10.922;2023-02-28T16:36:59;3.60;99.90
6664;DHT22;58749;48.022;10.922;2023-02-28T16:39:39;3.60;99.90
6664;DHT22;58749;48.022;10.922;2023-02-28T16:42:27;3.50;99.90
6664;DHT22;58749;48.022;10.922;2023-02-28T16:45:14;3.50;99.90
6664;DHT22;58749;48.022;10.922;2023-02-28T16:47:52;3.40;99.90
6664;DHT22;58749;48.022;10.922;2023-02-28T16:50:29;3.40;99.90
6664;DHT22;58749;48.022;10.922;2023-02-28T16:53:06;3.40;99.90
6664;DHT22;58749;48.022;10.922;2023-02-28T16:55:46;3.30;99.90
6664;DHT22;58749;48.022;10.922;2023-02-28T16:58:35;3.30;99.90
6664;DHT22;58749;48.022;10.922;2023-02-28T17:01:20;3.20;99.90